sensor_id;sensor_type;location;lat;lon;timestamp;P1;durP1;ratioP1;P2;durP2;ratioP2
22026;SDS011;11177;50.966;10.070;2023-08-30T00:01:14;4.25;;;1.90;;
22026;SDS011;11177;50.966;10.070;2023-08-30T00:03:41;4.38;;;2.10;;
22026;SDS011;11177;50.966;10.070;2023-08-30T00:06:08;8.57;;;2.05;;
22026;SDS011;11177;50.966;10.070;2023-08-30T00:08:35;3.22;;;2.20;;
22026;SDS011;11177;50.966;10.070;2023-08-30T00:11:02;3.10;;;1.98;;
22026;SDS011;11177;50.966;10.070;2023-08-30T00:13:31;2.45;;;1.88;;
22026;SDS011;11177;50.966;10.070;2023-08-30T00:16:00;4.05;;;2.20;;
22026;SDS011;11177;50.966;10.070;2023-08-30T00:18:28;2.58;;;1.98;;
22026;SDS011;11177;50.966;10.070;2023-08-30T00:20:56;4.60;;;2.30;;
22026;SDS011;11177;50.966;10.070;2023-08-30T00:23:24;2.83;;;2.20;;
22026;SDS011;11177;50.966;10.070;2023-08-30T00:25:53;4.22;;;2.30;;
22026;SDS011;11177;50.966;10.070;2023-08-30T00:28:20;3.97;;;2.17;;
22026;SDS011;11177;50.966;10.070;2023-08-30T00:30:52;3.25;;;2.20;;
22026;SDS011;11177;50.966;10.070;2023-08-30T00:33:19;2.17;;;1.90;;
22026;SDS011;11177;50.966;10.070;2023-08-30T00:35:46;2.28;;;1.90;;
22026;SDS011;11177;50.966;10.070;2023-08-30T00:38:22;1.80;;;1.70;;
22026;SDS011;11177;50.966;10.070;2023-08-30T00:40:48;5.00;;;1.75;;
22026;SDS011;11177;50.966;10.070;2023-08-30T00:43:15;5.93;;;1.80;;
22026;SDS011;11177;50.966;10.070;2023-08-30T00:45:43;2.40;;;1.98;;
22026;SDS011;11177;50.966;10.070;2023-08-30T00:48:10;5.65;;;1.90;;
22026;SDS011;11177;50.966;10.070;2023-08-30T00:50:38;3.25;;;1.80;;
22026;SDS011;11177;50.966;10.070;2023-08-30T00:53:05;6.63;;;2.00;;
22026;SDS011;11177;50.966;10.070;2023-08-30T00:55:36;2.42;;;1.90;;
22026;SDS011;11177;50.966;10.070;2023-08-30T00:58:03;3.50;;;1.60;;
22026;SDS011;11177;50.966;10.070;2023-08-30T01:00:30;3.08;;;2.00;;
22026;SDS011;11177;50.966;10.070;2023-08-30T01:02:58;2.55;;;1.80;;
22026;SDS011;11177;50.966;10.070;2023-08-30T01:05:25;3.05;;;1.85;;
22026;SDS011;11177;50.966;10.070;2023-08-30T01:07:52;5.47;;;1.90;;
22026;SDS011;11177;50.966;10.070;2023-08-30T01:10:21;2.85;;;1.90;;
22026;SDS011;11177;50.966;10.070;2023-08-30T01:12:49;3.95;;;1.90;;
22026;SDS011;11177;50.966;10.070;2023-08-30T01:15:20;2.28;;;1.70;;
22026;SDS011;11177;50.966;10.070;2023-08-30T01:17:48;4.50;;;1.70;;
22026;SDS011;11177;50.966;10.070;2023-08-30T01:20:16;4.82;;;2.10;;
22026;SDS011;11177;50.966;10.070;2023-08-30T01:23:34;1.92;;;1.80;;
22026;SDS011;11177;50.966;10.070;2023-08-30T01:25:53;2.55;;;1.88;;
22026;SDS011;11177;50.966;10.070;2023-08-30T01:28:26;2.35;;;1.88;;
22026;SDS011;11177;50.966;10.070;2023-08-30T01:30:53;3.80;;;1.90;;
22026;SDS011;11177;50.966;10.070;2023-08-30T01:33:21;4.65;;;2.53;;
22026;SDS011;11177;50.966;10.070;2023-08-30T01:35:50;3.03;;;1.98;;
22026;SDS011;11177;50.966;10.070;2023-08-30T01:38:17;2.47;;;2.20;;
22026;SDS011;11177;50.966;10.070;2023-08-30T01:40:44;3.30;;;2.70;;
22026;SDS011;11177;50.966;10.070;2023-08-30T01:43:12;5.63;;;2.05;;
22026;SDS011;11177;50.966;10.070;2023-08-30T01:45:41;3.65;;;2.03;;
22026;SDS011;11177;50.966;10.070;2023-08-30T01:48:10;4.70;;;2.30;;
22026;SDS011;11177;50.966;10.070;2023-08-30T01:50:41;5.15;;;2.60;;
22026;SDS011;11177;50.966;10.070;2023-08-30T01:53:10;2.70;;;2.50;;
22026;SDS011;11177;50.966;10.070;2023-08-30T01:55:38;3.70;;;2.33;;
22026;SDS011;11177;50.966;10.070;2023-08-30T01:58:06;3.13;;;2.33;;
22026;SDS011;11177;50.966;10.070;2023-08-30T02:00:37;4.00;;;2.35;;
22026;SDS011;11177;50.966;10.070;2023-08-30T02:03:12;5.18;;;2.22;;
22026;SDS011;11177;50.966;10.070;2023-08-30T02:08:13;5.28;;;2.10;;
22026;SDS011;11177;50.966;10.070;2023-08-30T02:10:46;4.82;;;2.28;;
22026;SDS011;11177;50.966;10.070;2023-08-30T02:13:20;3.38;;;2.10;;
22026;SDS011;11177;50.966;10.070;2023-08-30T02:15:48;3.95;;;2.30;;
22026;SDS011;11177;50.966;10.070;2023-08-30T02:18:16;2.40;;;2.20;;
22026;SDS011;11177;50.966;10.070;2023-08-30T02:20:44;7.18;;;2.55;;
22026;SDS011;11177;50.966;10.070;2023-08-30T02:23:12;4.90;;;2.47;;
22026;SDS011;11177;50.966;10.070;2023-08-30T02:25:40;4.80;;;2.10;;
22026;SDS011;11177;50.966;10.070;2023-08-30T02:28:07;6.43;;;2.10;;
22026;SDS011;11177;50.966;10.070;2023-08-30T02:30:35;3.33;;;1.98;;
22026;SDS011;11177;50.966;10.070;2023-08-30T02:33:02;4.40;;;1.75;;
22026;SDS011;11177;50.966;10.070;2023-08-30T02:35:29;3.33;;;1.88;;
22026;SDS011;11177;50.966;10.070;2023-08-30T02:37:56;4.65;;;2.20;;
22026;SDS011;11177;50.966;10.070;2023-08-30T02:40:23;2.22;;;2.00;;
22026;SDS011;11177;50.966;10.070;2023-08-30T02:42:50;3.47;;;2.00;;
22026;SDS011;11177;50.966;10.070;2023-08-30T02:45:16;2.00;;;1.90;;
22026;SDS011;11177;50.966;10.070;2023-08-30T02:47:44;4.22;;;2.13;;
22026;SDS011;11177;50.966;10.070;2023-08-30T02:50:11;3.00;;;1.88;;
22026;SDS011;11177;50.966;10.070;2023-08-30T02:52:38;2.60;;;1.90;;
22026;SDS011;11177;50.966;10.070;2023-08-30T02:55:05;3.42;;;1.90;;
22026;SDS011;11177;50.966;10.070;2023-08-30T02:57:32;4.28;;;2.10;;
22026;SDS011;11177;50.966;10.070;2023-08-30T02:59:59;4.07;;;2.28;;
22026;SDS011;11177;50.966;10.070;2023-08-30T03:02:26;6.05;;;2.67;;
22026;SDS011;11177;50.966;10.070;2023-08-30T03:04:54;3.90;;;2.60;;
22026;SDS011;11177;50.966;10.070;2023-08-30T03:07:21;3.83;;;2.75;;
22026;SDS011;11177;50.966;10.070;2023-08-30T03:09:51;4.78;;;3.08;;
22026;SDS011;11177;50.966;10.070;2023-08-30T03:12:19;5.40;;;3.00;;
22026;SDS011;11177;50.966;10.070;2023-08-30T03:14:47;4.25;;;2.80;;
22026;SDS011;11177;50.966;10.070;2023-08-30T03:17:14;3.20;;;2.90;;
22026;SDS011;11177;50.966;10.070;2023-08-30T03:19:41;4.55;;;3.47;;
22026;SDS011;11177;50.966;10.070;2023-08-30T03:22:08;10.18;;;4.30;;
22026;SDS011;11177;50.966;10.070;2023-08-30T03:24:35;5.28;;;2.97;;
22026;SDS011;11177;50.966;10.070;2023-08-30T03:27:02;3.83;;;3.00;;
22026;SDS011;11177;50.966;10.070;2023-08-30T03:29:29;6.45;;;3.40;;
22026;SDS011;11177;50.966;10.070;2023-08-30T03:31:56;4.63;;;3.05;;
22026;SDS011;11177;50.966;10.070;2023-08-30T03:34:23;4.53;;;3.30;;
22026;SDS011;11177;50.966;10.070;2023-08-30T03:36:50;4.50;;;3.17;;
22026;SDS011;11177;50.966;10.070;2023-08-30T03:39:21;3.30;;;3.00;;
22026;SDS011;11177;50.966;10.070;2023-08-30T03:41:49;4.18;;;2.72;;
22026;SDS011;11177;50.966;10.070;2023-08-30T03:44:18;2.90;;;2.60;;
22026;SDS011;11177;50.966;10.070;2023-08-30T03:46:45;5.65;;;2.92;;
22026;SDS011;11177;50.966;10.070;2023-08-30T03:49:12;6.22;;;2.85;;
22026;SDS011;11177;50.966;10.070;2023-08-30T03:51:39;4.00;;;2.70;;
22026;SDS011;11177;50.966;10.070;2023-08-30T03:54:06;7.32;;;3.30;;
22026;SDS011;11177;50.966;10.070;2023-08-30T03:56:34;3.72;;;3.10;;
22026;SDS011;11177;50.966;10.070;2023-08-30T03:59:02;5.80;;;3.50;;
22026;SDS011;11177;50.966;10.070;2023-08-30T04:01:29;5.47;;;3.28;;
22026;SDS011;11177;50.966;10.070;2023-08-30T04:03:56;3.22;;;2.63;;
22026;SDS011;11177;50.966;10.070;2023-08-30T04:06:26;6.75;;;2.58;;
22026;SDS011;11177;50.966;10.070;2023-08-30T04:08:53;3.05;;;2.75;;
22026;SDS011;11177;50.966;10.070;2023-08-30T04:11:21;4.25;;;2.80;;
22026;SDS011;11177;50.966;10.070;2023-08-30T04:13:49;4.55;;;2.92;;
22026;SDS011;11177;50.966;10.070;2023-08-30T04:16:19;5.05;;;3.20;;
22026;SDS011;11177;50.966;10.070;2023-08-30T04:18:49;3.63;;;3.33;;
22026;SDS011;11177;50.966;10.070;2023-08-30T04:21:16;4.85;;;3.15;;
22026;SDS011;11177;50.966;10.070;2023-08-30T04:23:44;6.78;;;3.30;;
22026;SDS011;11177;50.966;10.070;2023-08-30T04:26:11;7.97;;;3.50;;
22026;SDS011;11177;50.966;10.070;2023-08-30T04:28:38;6.50;;;3.40;;
22026;SDS011;11177;50.966;10.070;2023-08-30T04:31:05;4.88;;;3.88;;
22026;SDS011;11177;50.966;10.070;2023-08-30T04:33:32;8.07;;;4.43;;
22026;SDS011;11177;50.966;10.070;2023-08-30T04:35:59;10.93;;;4.95;;
22026;SDS011;11177;50.966;10.070;2023-08-30T04:38:27;10.90;;;5.32;;
22026;SDS011;11177;50.966;10.070;2023-08-30T04:40:58;14.52;;;5.90;;
22026;SDS011;11177;50.966;10.070;2023-08-30T04:43:27;12.27;;;6.45;;
22026;SDS011;11177;50.966;10.070;2023-08-30T04:45:57;11.05;;;5.32;;
22026;SDS011;11177;50.966;10.070;2023-08-30T04:48:24;11.25;;;5.82;;
22026;SDS011;11177;50.966;10.070;2023-08-30T04:51:01;12.85;;;5.97;;
22026;SDS011;11177;50.966;10.070;2023-08-30T04:53:31;10.38;;;6.15;;
22026;SDS011;11177;50.966;10.070;2023-08-30T04:55:58;7.93;;;5.63;;
22026;SDS011;11177;50.966;10.070;2023-08-30T04:58:25;12.43;;;5.32;;
22026;SDS011;11177;50.966;10.070;2023-08-30T05:00:56;8.75;;;5.53;;
22026;SDS011;11177;50.966;10.070;2023-08-30T05:03:24;9.13;;;6.25;;
22026;SDS011;11177;50.966;10.070;2023-08-30T05:05:51;10.02;;;5.72;;
22026;SDS011;11177;50.966;10.070;2023-08-30T05:08:19;9.43;;;5.10;;
22026;SDS011;11177;50.966;10.070;2023-08-30T05:10:46;6.68;;;5.45;;
22026;SDS011;11177;50.966;10.070;2023-08-30T05:13:15;10.68;;;6.38;;
22026;SDS011;11177;50.966;10.070;2023-08-30T05:15:46;10.75;;;5.95;;
22026;SDS011;11177;50.966;10.070;2023-08-30T05:18:13;20.23;;;7.35;;
22026;SDS011;11177;50.966;10.070;2023-08-30T05:20:41;11.98;;;7.53;;
22026;SDS011;11177;50.966;10.070;2023-08-30T05:23:13;10.65;;;7.75;;
22026;SDS011;11177;50.966;10.070;2023-08-30T05:25:41;10.85;;;7.38;;
22026;SDS011;11177;50.966;10.070;2023-08-30T05:28:11;11.88;;;7.50;;
22026;SDS011;11177;50.966;10.070;2023-08-30T05:30:42;11.20;;;7.50;;
22026;SDS011;11177;50.966;10.070;2023-08-30T05:33:12;13.98;;;7.38;;
22026;SDS011;11177;50.966;10.070;2023-08-30T05:35:39;10.27;;;7.28;;
22026;SDS011;11177;50.966;10.070;2023-08-30T05:38:10;10.77;;;6.80;;
22026;SDS011;11177;50.966;10.070;2023-08-30T05:40:37;14.43;;;7.03;;
22026;SDS011;11177;50.966;10.070;2023-08-30T05:43:11;9.82;;;6.40;;
22026;SDS011;11177;50.966;10.070;2023-08-30T05:45:39;11.93;;;6.93;;
22026;SDS011;11177;50.966;10.070;2023-08-30T05:48:06;8.30;;;6.40;;
22026;SDS011;11177;50.966;10.070;2023-08-30T05:50:36;9.43;;;7.05;;
22026;SDS011;11177;50.966;10.070;2023-08-30T05:53:07;9.57;;;7.57;;
22026;SDS011;11177;50.966;10.070;2023-08-30T05:55:34;7.65;;;6.20;;
22026;SDS011;11177;50.966;10.070;2023-08-30T05:58:02;7.93;;;6.93;;
22026;SDS011;11177;50.966;10.070;2023-08-30T06:00:30;8.65;;;6.40;;
22026;SDS011;11177;50.966;10.070;2023-08-30T06:02:58;9.77;;;7.18;;
22026;SDS011;11177;50.966;10.070;2023-08-30T06:05:26;8.13;;;7.07;;
22026;SDS011;11177;50.966;10.070;2023-08-30T06:07:58;9.32;;;7.55;;
22026;SDS011;11177;50.966;10.070;2023-08-30T06:10:26;10.90;;;7.35;;
22026;SDS011;11177;50.966;10.070;2023-08-30T06:12:53;10.07;;;7.10;;
22026;SDS011;11177;50.966;10.070;2023-08-30T06:15:20;8.10;;;6.57;;
22026;SDS011;11177;50.966;10.070;2023-08-30T06:17:47;8.95;;;6.43;;
22026;SDS011;11177;50.966;10.070;2023-08-30T06:20:17;10.95;;;7.10;;
22026;SDS011;11177;50.966;10.070;2023-08-30T06:22:45;9.95;;;7.30;;
22026;SDS011;11177;50.966;10.070;2023-08-30T06:25:12;12.45;;;8.40;;
22026;SDS011;11177;50.966;10.070;2023-08-30T06:27:41;11.88;;;8.48;;
22026;SDS011;11177;50.966;10.070;2023-08-30T06:30:12;11.82;;;8.85;;
22026;SDS011;11177;50.966;10.070;2023-08-30T06:32:40;12.88;;;9.85;;
22026;SDS011;11177;50.966;10.070;2023-08-30T06:35:07;11.27;;;8.88;;
22026;SDS011;11177;50.966;10.070;2023-08-30T06:37:35;18.05;;;10.52;;
22026;SDS011;11177;50.966;10.070;2023-08-30T06:40:05;13.00;;;9.85;;
22026;SDS011;11177;50.966;10.070;2023-08-30T06:42:38;15.70;;;10.52;;
22026;SDS011;11177;50.966;10.070;2023-08-30T06:45:05;13.20;;;10.52;;
22026;SDS011;11177;50.966;10.070;2023-08-30T06:47:33;14.68;;;10.77;;
22026;SDS011;11177;50.966;10.070;2023-08-30T06:50:00;14.82;;;9.70;;
22026;SDS011;11177;50.966;10.070;2023-08-30T06:52:30;12.77;;;10.23;;
22026;SDS011;11177;50.966;10.070;2023-08-30T06:55:01;16.27;;;10.27;;
22026;SDS011;11177;50.966;10.070;2023-08-30T06:57:28;14.75;;;10.48;;
22026;SDS011;11177;50.966;10.070;2023-08-30T06:59:56;15.20;;;10.43;;
22026;SDS011;11177;50.966;10.070;2023-08-30T07:02:23;13.48;;;9.85;;
22026;SDS011;11177;50.966;10.070;2023-08-30T07:04:51;14.50;;;9.88;;
22026;SDS011;11177;50.966;10.070;2023-08-30T07:07:19;16.33;;;9.50;;
22026;SDS011;11177;50.966;10.070;2023-08-30T07:09:46;17.33;;;9.90;;
22026;SDS011;11177;50.966;10.070;2023-08-30T07:12:13;16.75;;;10.23;;
22026;SDS011;11177;50.966;10.070;2023-08-30T07:14:40;12.23;;;9.45;;
22026;SDS011;11177;50.966;10.070;2023-08-30T07:17:07;15.45;;;10.02;;
22026;SDS011;11177;50.966;10.070;2023-08-30T07:19:34;12.48;;;9.15;;
22026;SDS011;11177;50.966;10.070;2023-08-30T07:22:02;12.07;;;8.48;;
22026;SDS011;11177;50.966;10.070;2023-08-30T07:24:29;10.70;;;8.50;;
22026;SDS011;11177;50.966;10.070;2023-08-30T07:26:57;9.95;;;7.68;;
22026;SDS011;11177;50.966;10.070;2023-08-30T07:29:24;8.43;;;7.53;;
22026;SDS011;11177;50.966;10.070;2023-08-30T07:31:54;8.55;;;7.18;;
22026;SDS011;11177;50.966;10.070;2023-08-30T07:34:23;11.55;;;7.10;;
22026;SDS011;11177;50.966;10.070;2023-08-30T07:36:53;8.02;;;7.03;;
22026;SDS011;11177;50.966;10.070;2023-08-30T07:39:21;11.15;;;6.68;;
22026;SDS011;11177;50.966;10.070;2023-08-30T07:41:49;7.88;;;6.85;;
22026;SDS011;11177;50.966;10.070;2023-08-30T07:44:16;7.60;;;6.88;;
22026;SDS011;11177;50.966;10.070;2023-08-30T07:46:43;8.05;;;7.22;;
22026;SDS011;11177;50.966;10.070;2023-08-30T07:49:10;7.93;;;6.55;;
22026;SDS011;11177;50.966;10.070;2023-08-30T07:51:37;8.10;;;6.68;;
22026;SDS011;11177;50.966;10.070;2023-08-30T07:54:05;9.35;;;6.22;;
22026;SDS011;11177;50.966;10.070;2023-08-30T07:56:32;6.55;;;5.95;;
22026;SDS011;11177;50.966;10.070;2023-08-30T07:59:00;7.00;;;6.10;;
22026;SDS011;11177;50.966;10.070;2023-08-30T08:01:30;8.38;;;5.97;;
22026;SDS011;11177;50.966;10.070;2023-08-30T08:03:57;15.13;;;7.55;;
22026;SDS011;11177;50.966;10.070;2023-08-30T08:06:33;6.90;;;6.25;;
22026;SDS011;11177;50.966;10.070;2023-08-30T08:09:00;6.75;;;6.15;;
22026;SDS011;11177;50.966;10.070;2023-08-30T08:11:28;7.28;;;6.22;;
22026;SDS011;11177;50.966;10.070;2023-08-30T08:13:56;8.75;;;6.50;;
22026;SDS011;11177;50.966;10.070;2023-08-30T08:16:23;10.38;;;6.15;;
22026;SDS011;11177;50.966;10.070;2023-08-30T08:18:51;7.30;;;6.30;;
22026;SDS011;11177;50.966;10.070;2023-08-30T08:21:25;7.28;;;6.47;;
22026;SDS011;11177;50.966;10.070;2023-08-30T08:23:52;7.95;;;6.22;;
22026;SDS011;11177;50.966;10.070;2023-08-30T08:26:19;6.95;;;6.15;;
22026;SDS011;11177;50.966;10.070;2023-08-30T08:28:46;8.13;;;6.05;;
22026;SDS011;11177;50.966;10.070;2023-08-30T08:31:17;6.50;;;5.90;;
22026;SDS011;11177;50.966;10.070;2023-08-30T08:33:50;6.78;;;6.18;;
22026;SDS011;11177;50.966;10.070;2023-08-30T08:36:18;9.23;;;6.68;;
22026;SDS011;11177;50.966;10.070;2023-08-30T08:38:49;8.02;;;6.80;;
22026;SDS011;11177;50.966;10.070;2023-08-30T08:41:19;9.07;;;6.82;;
22026;SDS011;11177;50.966;10.070;2023-08-30T08:43:46;8.77;;;6.50;;
22026;SDS011;11177;50.966;10.070;2023-08-30T08:46:13;11.80;;;6.78;;
22026;SDS011;11177;50.966;10.070;2023-08-30T08:48:42;7.40;;;6.13;;
22026;SDS011;11177;50.966;10.070;2023-08-30T08:51:10;8.70;;;6.88;;
22026;SDS011;11177;50.966;10.070;2023-08-30T08:53:37;7.03;;;6.32;;
22026;SDS011;11177;50.966;10.070;2023-08-30T08:56:06;8.65;;;6.05;;
22026;SDS011;11177;50.966;10.070;2023-08-30T08:58:37;7.43;;;6.47;;
22026;SDS011;11177;50.966;10.070;2023-08-30T09:01:05;6.40;;;5.80;;
22026;SDS011;11177;50.966;10.070;2023-08-30T09:03:44;8.07;;;5.60;;
22026;SDS011;11177;50.966;10.070;2023-08-30T09:06:11;7.53;;;5.53;;
22026;SDS011;11177;50.966;10.070;2023-08-30T09:08:39;7.55;;;5.13;;
22026;SDS011;11177;50.966;10.070;2023-08-30T09:11:09;6.28;;;5.22;;
22026;SDS011;11177;50.966;10.070;2023-08-30T09:13:37;5.70;;;4.45;;
22026;SDS011;11177;50.966;10.070;2023-08-30T09:16:16;5.63;;;3.95;;
22026;SDS011;11177;50.966;10.070;2023-08-30T09:18:43;6.25;;;4.38;;
22026;SDS011;11177;50.966;10.070;2023-08-30T09:21:25;5.60;;;4.28;;
22026;SDS011;11177;50.966;10.070;2023-08-30T09:23:58;6.18;;;4.53;;
22026;SDS011;11177;50.966;10.070;2023-08-30T09:26:35;6.90;;;4.20;;
22026;SDS011;11177;50.966;10.070;2023-08-30T09:29:07;6.90;;;4.10;;
22026;SDS011;11177;50.966;10.070;2023-08-30T09:31:35;4.72;;;4.10;;
22026;SDS011;11177;50.966;10.070;2023-08-30T09:34:07;5.60;;;3.83;;
22026;SDS011;11177;50.966;10.070;2023-08-30T09:39:09;4.40;;;3.88;;
22026;SDS011;11177;50.966;10.070;2023-08-30T09:41:41;4.65;;;3.70;;
22026;SDS011;11177;50.966;10.070;2023-08-30T09:44:16;5.30;;;3.50;;
22026;SDS011;11177;50.966;10.070;2023-08-30T09:46:53;8.60;;;3.85;;
22026;SDS011;11177;50.966;10.070;2023-08-30T09:49:22;4.17;;;3.50;;
22026;SDS011;11177;50.966;10.070;2023-08-30T09:51:54;5.80;;;3.75;;
22026;SDS011;11177;50.966;10.070;2023-08-30T09:54:32;5.28;;;3.70;;
22026;SDS011;11177;50.966;10.070;2023-08-30T09:57:14;4.40;;;3.60;;
22026;SDS011;11177;50.966;10.070;2023-08-30T09:59:42;4.32;;;2.95;;
22026;SDS011;11177;50.966;10.070;2023-08-30T10:02:12;3.30;;;2.85;;
22026;SDS011;11177;50.966;10.070;2023-08-30T10:04:45;3.75;;;3.17;;
22026;SDS011;11177;50.966;10.070;2023-08-30T10:07:13;5.03;;;3.58;;
22026;SDS011;11177;50.966;10.070;2023-08-30T10:09:42;5.68;;;2.85;;
22026;SDS011;11177;50.966;10.070;2023-08-30T10:12:31;5.07;;;2.85;;
22026;SDS011;11177;50.966;10.070;2023-08-30T10:14:59;5.45;;;3.03;;
22026;SDS011;11177;50.966;10.070;2023-08-30T10:17:27;3.90;;;3.50;;
22026;SDS011;11177;50.966;10.070;2023-08-30T10:19:56;6.25;;;2.58;;
22026;SDS011;11177;50.966;10.070;2023-08-30T10:22:29;4.97;;;2.83;;
22026;SDS011;11177;50.966;10.070;2023-08-30T10:24:57;4.85;;;3.78;;
22026;SDS011;11177;50.966;10.070;2023-08-30T10:27:41;4.32;;;3.92;;
22026;SDS011;11177;50.966;10.070;2023-08-30T10:30:14;5.82;;;4.32;;
22026;SDS011;11177;50.966;10.070;2023-08-30T10:32:43;6.38;;;3.63;;
22026;SDS011;11177;50.966;10.070;2023-08-30T10:35:12;6.13;;;4.10;;
22026;SDS011;11177;50.966;10.070;2023-08-30T10:37:41;5.93;;;4.65;;
22026;SDS011;11177;50.966;10.070;2023-08-30T10:40:13;5.80;;;5.20;;
22026;SDS011;11177;50.966;10.070;2023-08-30T10:42:40;7.07;;;5.88;;
22026;SDS011;11177;50.966;10.070;2023-08-30T10:45:08;8.35;;;5.80;;
22026;SDS011;11177;50.966;10.070;2023-08-30T10:47:40;9.43;;;6.78;;
22026;SDS011;11177;50.966;10.070;2023-08-30T10:50:08;8.52;;;6.35;;
22026;SDS011;11177;50.966;10.070;2023-08-30T10:52:37;8.80;;;6.03;;
22026;SDS011;11177;50.966;10.070;2023-08-30T10:55:11;9.13;;;6.65;;
22026;SDS011;11177;50.966;10.070;2023-08-30T10:57:41;9.50;;;7.32;;
22026;SDS011;11177;50.966;10.070;2023-08-30T11:00:20;8.57;;;7.35;;
22026;SDS011;11177;50.966;10.070;2023-08-30T11:02:48;10.05;;;8.23;;
22026;SDS011;11177;50.966;10.070;2023-08-30T11:05:17;8.95;;;7.70;;
22026;SDS011;11177;50.966;10.070;2023-08-30T11:07:51;11.82;;;8.75;;
22026;SDS011;11177;50.966;10.070;2023-08-30T11:10:19;10.88;;;7.78;;
22026;SDS011;11177;50.966;10.070;2023-08-30T11:12:47;7.90;;;7.10;;
22026;SDS011;11177;50.966;10.070;2023-08-30T11:15:19;9.70;;;8.60;;
22026;SDS011;11177;50.966;10.070;2023-08-30T11:17:48;13.23;;;8.75;;
22026;SDS011;11177;50.966;10.070;2023-08-30T11:20:16;7.95;;;7.00;;
22026;SDS011;11177;50.966;10.070;2023-08-30T11:22:47;10.77;;;7.60;;
22026;SDS011;11177;50.966;10.070;2023-08-30T11:25:18;9.20;;;6.75;;
22026;SDS011;11177;50.966;10.070;2023-08-30T11:28:01;7.55;;;6.63;;
22026;SDS011;11177;50.966;10.070;2023-08-30T11:30:29;6.80;;;6.10;;
22026;SDS011;11177;50.966;10.070;2023-08-30T11:32:57;6.30;;;5.70;;
22026;SDS011;11177;50.966;10.070;2023-08-30T11:35:24;11.95;;;6.40;;
22026;SDS011;11177;50.966;10.070;2023-08-30T11:37:52;7.60;;;5.90;;
22026;SDS011;11177;50.966;10.070;2023-08-30T11:40:19;6.10;;;5.50;;
22026;SDS011;11177;50.966;10.070;2023-08-30T11:42:47;5.55;;;5.00;;
22026;SDS011;11177;50.966;10.070;2023-08-30T11:45:14;5.28;;;4.65;;
22026;SDS011;11177;50.966;10.070;2023-08-30T11:47:42;7.32;;;4.28;;
22026;SDS011;11177;50.966;10.070;2023-08-30T11:50:10;9.82;;;4.57;;
22026;SDS011;11177;50.966;10.070;2023-08-30T11:52:39;5.93;;;4.53;;
22026;SDS011;11177;50.966;10.070;2023-08-30T11:55:06;5.00;;;4.50;;
22026;SDS011;11177;50.966;10.070;2023-08-30T11:57:35;4.72;;;4.20;;
22026;SDS011;11177;50.966;10.070;2023-08-30T12:00:12;4.38;;;3.97;;
22026;SDS011;11177;50.966;10.070;2023-08-30T12:02:39;5.80;;;3.35;;
22026;SDS011;11177;50.966;10.070;2023-08-30T12:05:10;5.85;;;3.58;;
22026;SDS011;11177;50.966;10.070;2023-08-30T12:07:38;3.33;;;2.90;;
22026;SDS011;11177;50.966;10.070;2023-08-30T12:10:08;5.63;;;2.90;;
22026;SDS011;11177;50.966;10.070;2023-08-30T12:12:37;4.93;;;3.10;;
22026;SDS011;11177;50.966;10.070;2023-08-30T12:15:08;3.25;;;2.88;;
22026;SDS011;11177;50.966;10.070;2023-08-30T12:17:36;5.55;;;3.10;;
22026;SDS011;11177;50.966;10.070;2023-08-30T12:20:04;9.40;;;3.20;;
22026;SDS011;11177;50.966;10.070;2023-08-30T12:22:41;4.45;;;3.30;;
22026;SDS011;11177;50.966;10.070;2023-08-30T12:25:17;5.45;;;2.50;;
22026;SDS011;11177;50.966;10.070;2023-08-30T12:27:50;5.57;;;2.92;;
22026;SDS011;11177;50.966;10.070;2023-08-30T12:30:17;7.65;;;2.90;;
22026;SDS011;11177;50.966;10.070;2023-08-30T12:32:45;6.32;;;2.80;;
22026;SDS011;11177;50.966;10.070;2023-08-30T12:35:12;3.30;;;2.40;;
22026;SDS011;11177;50.966;10.070;2023-08-30T12:37:40;3.28;;;2.63;;
22026;SDS011;11177;50.966;10.070;2023-08-30T12:40:09;2.95;;;2.72;;
22026;SDS011;11177;50.966;10.070;2023-08-30T12:42:37;2.70;;;2.50;;
22026;SDS011;11177;50.966;10.070;2023-08-30T12:45:04;4.95;;;2.55;;
22026;SDS011;11177;50.966;10.070;2023-08-30T12:47:32;5.43;;;2.78;;
22026;SDS011;11177;50.966;10.070;2023-08-30T12:49:59;4.68;;;2.60;;
22026;SDS011;11177;50.966;10.070;2023-08-30T12:52:27;3.20;;;2.72;;
22026;SDS011;11177;50.966;10.070;2023-08-30T12:54:54;3.70;;;2.53;;
22026;SDS011;11177;50.966;10.070;2023-08-30T12:57:20;4.85;;;2.67;;
22026;SDS011;11177;50.966;10.070;2023-08-30T12:59:47;5.18;;;2.70;;
22026;SDS011;11177;50.966;10.070;2023-08-30T13:02:14;3.28;;;2.58;;
22026;SDS011;11177;50.966;10.070;2023-08-30T13:04:41;2.63;;;2.42;;
22026;SDS011;11177;50.966;10.070;2023-08-30T13:07:08;4.55;;;2.55;;
22026;SDS011;11177;50.966;10.070;2023-08-30T13:09:35;6.80;;;2.60;;
22026;SDS011;11177;50.966;10.070;2023-08-30T13:12:03;3.22;;;2.55;;
22026;SDS011;11177;50.966;10.070;2023-08-30T13:14:30;5.10;;;2.30;;
22026;SDS011;11177;50.966;10.070;2023-08-30T13:16:57;3.50;;;2.53;;
22026;SDS011;11177;50.966;10.070;2023-08-30T13:19:25;6.13;;;2.60;;
22026;SDS011;11177;50.966;10.070;2023-08-30T13:21:52;5.63;;;2.70;;
22026;SDS011;11177;50.966;10.070;2023-08-30T13:24:19;5.30;;;2.22;;
22026;SDS011;11177;50.966;10.070;2023-08-30T13:26:45;4.75;;;2.67;;
22026;SDS011;11177;50.966;10.070;2023-08-30T13:29:17;2.53;;;2.25;;
22026;SDS011;11177;50.966;10.070;2023-08-30T13:31:44;3.35;;;2.30;;
22026;SDS011;11177;50.966;10.070;2023-08-30T13:34:11;3.55;;;2.30;;
22026;SDS011;11177;50.966;10.070;2023-08-30T13:36:38;2.22;;;2.03;;
22026;SDS011;11177;50.966;10.070;2023-08-30T13:39:08;2.53;;;2.33;;
22026;SDS011;11177;50.966;10.070;2023-08-30T13:41:35;2.53;;;2.28;;
22026;SDS011;11177;50.966;10.070;2023-08-30T13:44:02;5.47;;;2.40;;
22026;SDS011;11177;50.966;10.070;2023-08-30T13:46:32;2.72;;;2.53;;
22026;SDS011;11177;50.966;10.070;2023-08-30T13:49:00;2.58;;;2.15;;
22026;SDS011;11177;50.966;10.070;2023-08-30T13:51:27;3.20;;;2.08;;
22026;SDS011;11177;50.966;10.070;2023-08-30T13:53:54;3.15;;;2.22;;
22026;SDS011;11177;50.966;10.070;2023-08-30T13:56:21;2.70;;;2.20;;
22026;SDS011;11177;50.966;10.070;2023-08-30T13:58:49;4.60;;;2.13;;
22026;SDS011;11177;50.966;10.070;2023-08-30T14:01:16;2.50;;;2.22;;
22026;SDS011;11177;50.966;10.070;2023-08-30T14:03:43;2.35;;;2.10;;
22026;SDS011;11177;50.966;10.070;2023-08-30T14:06:10;3.22;;;2.90;;
22026;SDS011;11177;50.966;10.070;2023-08-30T14:08:38;4.97;;;3.28;;
22026;SDS011;11177;50.966;10.070;2023-08-30T14:11:05;4.75;;;2.88;;
22026;SDS011;11177;50.966;10.070;2023-08-30T14:13:32;3.00;;;2.70;;
22026;SDS011;11177;50.966;10.070;2023-08-30T14:16:00;2.95;;;2.25;;
22026;SDS011;11177;50.966;10.070;2023-08-30T14:18:29;2.78;;;2.17;;
22026;SDS011;11177;50.966;10.070;2023-08-30T14:20:59;6.07;;;2.67;;
22026;SDS011;11177;50.966;10.070;2023-08-30T14:23:27;2.92;;;2.55;;
22026;SDS011;11177;50.966;10.070;2023-08-30T14:26:02;7.75;;;2.72;;
22026;SDS011;11177;50.966;10.070;2023-08-30T14:28:36;9.38;;;2.65;;
22026;SDS011;11177;50.966;10.070;2023-08-30T14:31:06;3.50;;;2.40;;
22026;SDS011;11177;50.966;10.070;2023-08-30T14:33:33;2.47;;;2.28;;
22026;SDS011;11177;50.966;10.070;2023-08-30T14:36:00;2.72;;;2.30;;
22026;SDS011;11177;50.966;10.070;2023-08-30T14:38:30;2.53;;;2.33;;
22026;SDS011;11177;50.966;10.070;2023-08-30T14:41:00;4.40;;;2.60;;
22026;SDS011;11177;50.966;10.070;2023-08-30T14:43:27;3.33;;;2.40;;
22026;SDS011;11177;50.966;10.070;2023-08-30T14:45:59;2.90;;;2.30;;